sensor_id;sensor_type;location;lat;lon;timestamp;pressure;altitude;pressure_sealevel;temperature;humidity
23899;BME280;20544;50.018;20.010;2022-12-29T00:01:41;98819.12;;;0.42;100.00
23899;BME280;20544;50.018;20.010;2022-12-29T00:04:58;98823.61;;;0.40;100.00
23899;BME280;20544;50.018;20.010;2022-12-29T00:08:14;98816.61;;;0.29;100.00
23899;BME280;20544;50.018;20.010;2022-12-29T00:11:32;98820.38;;;0.25;100.00
23899;BME280;20544;50.018;20.010;2022-12-29T00:14:48;98826.44;;;0.25;100.00
23899;BME280;20544;50.018;20.010;2022-12-29T00:18:18;98826.59;;;0.35;100.00
23899;BME280;20544;50.018;20.010;2022-12-29T00:21:34;98830.74;;;0.38;100.00
23899;BME280;20544;50.018;20.010;2022-12-29T00:25:05;98835.94;;;0.26;100.00
23899;BME280;20544;50.018;20.010;2022-12-29T00:28:38;98828.83;;;0.40;100.00
23899;BME280;20544;50.018;20.010;2022-12-29T00:32:11;98824.83;;;0.58;100.00
23899;BME280;20544;50.018;20.010;2022-12-29T00:35:44;98826.16;;;0.64;100.00
23899;BME280;20544;50.018;20.010;2022-12-29T00:39:06;98833.98;;;0.64;100.00
23899;BME280;20544;50.018;20.010;2022-12-29T00:42:38;98831.45;;;0.51;100.00
23899;BME280;20544;50.018;20.010;2022-12-29T00:46:08;98827.30;;;0.48;100.00
23899;BME280;20544;50.018;20.010;2022-12-29T00:49:26;98823.76;;;0.61;100.00
23899;BME280;20544;50.018;20.010;2022-12-29T00:52:45;98831.38;;;0.64;100.00
23899;BME280;20544;50.018;20.010;2022-12-29T00:56:03;98833.04;;;0.65;100.00
23899;BME280;20544;50.018;20.010;2022-12-29T00:59:20;98833.64;;;0.69;100.00
23899;BME280;20544;50.018;20.010;2022-12-29T01:02:37;98834.21;;;0.72;100.00
23899;BME280;20544;50.018;20.010;2022-12-29T01:05:54;98832.79;;;0.68;100.00
23899;BME280;20544;50.018;20.010;2022-12-29T01:09:11;98839.94;;;0.77;100.00
23899;BME280;20544;50.018;20.010;2022-12-29T01:16:51;98834.21;;;0.72;100.00
23899;BME280;20544;50.018;20.010;2022-12-29T01:20:11;98826.38;;;0.72;100.00
23899;BME280;20544;50.018;20.010;2022-12-29T01:23:28;98827.35;;;0.83;100.00
23899;BME280;20544;50.018;20.010;2022-12-29T01:26:46;98816.55;;;0.99;100.00
23899;BME280;20544;50.018;20.010;2022-12-29T01:30:03;98823.39;;;1.34;100.00
23899;BME280;20544;50.018;20.010;2022-12-29T01:33:23;98805.98;;;1.88;100.00
23899;BME280;20544;50.018;20.010;2022-12-29T01:36:39;98809.46;;;2.52;100.00
23899;BME280;20544;50.018;20.010;2022-12-29T01:39:58;98806.83;;;2.83;100.00
23899;BME280;20544;50.018;20.010;2022-12-29T01:43:15;98803.19;;;3.05;100.00
23899;BME280;20544;50.018;20.010;2022-12-29T01:46:35;98805.06;;;3.24;100.00
23899;BME280;20544;50.018;20.010;2022-12-29T01:49:55;98814.33;;;3.38;100.00
23899;BME280;20544;50.018;20.010;2022-12-29T01:53:17;98806.20;;;3.51;100.00
23899;BME280;20544;50.018;20.010;2022-12-29T01:56:37;98809.66;;;3.61;100.00
23899;BME280;20544;50.018;20.010;2022-12-29T01:59:57;98808.30;;;3.67;100.00
23899;BME280;20544;50.018;20.010;2022-12-29T02:03:17;98811.48;;;3.70;100.00
23899;BME280;20544;50.018;20.010;2022-12-29T02:06:43;98809.13;;;3.77;100.00
23899;BME280;20544;50.018;20.010;2022-12-29T02:10:03;98802.36;;;3.84;100.00
23899;BME280;20544;50.018;20.010;2022-12-29T02:13:19;98784.55;;;3.88;100.00
23899;BME280;20544;50.018;20.010;2022-12-29T02:16:44;98784.14;;;3.93;100.00
23899;BME280;20544;50.018;20.010;2022-12-29T02:28:36;98788.69;;;4.00;100.00
23899;BME280;20544;50.018;20.010;2022-12-29T02:32:09;98786.73;;;4.02;100.00
23899;BME280;20544;50.018;20.010;2022-12-29T02:35:32;98775.97;;;4.05;100.00
23899;BME280;20544;50.018;20.010;2022-12-29T02:38:59;98772.09;;;4.10;100.00
23899;BME280;20544;50.018;20.010;2022-12-29T02:42:22;98760.63;;;4.01;100.00
23899;BME280;20544;50.018;20.010;2022-12-29T02:45:45;98754.72;;;3.89;100.00
23899;BME280;20544;50.018;20.010;2022-12-29T02:49:08;98736.91;;;3.83;100.00
23899;BME280;20544;50.018;20.010;2022-12-29T02:52:30;98736.09;;;3.63;100.00
23899;BME280;20544;50.018;20.010;2022-12-29T02:55:51;98740.23;;;3.55;100.00
23899;BME280;20544;50.018;20.010;2022-12-29T02:59:08;98737.05;;;3.52;100.00
23899;BME280;20544;50.018;20.010;2022-12-29T03:02:39;98741.88;;;3.47;100.00
23899;BME280;20544;50.018;20.010;2022-12-29T03:06:11;98742.13;;;3.34;100.00
23899;BME280;20544;50.018;20.010;2022-12-29T03:09:43;98737.55;;;3.16;100.00
23899;BME280;20544;50.018;20.010;2022-12-29T03:13:07;98731.89;;;3.11;100.00
23899;BME280;20544;50.018;20.010;2022-12-29T03:16:44;98724.03;;;3.11;100.00
23899;BME280;20544;50.018;20.010;2022-12-29T03:20:04;98720.45;;;3.12;100.00
23899;BME280;20544;50.018;20.010;2022-12-29T03:23:26;98708.17;;;3.22;100.00
23899;BME280;20544;50.018;20.010;2022-12-29T03:26:46;98707.92;;;3.26;100.00
23899;BME280;20544;50.018;20.010;2022-12-29T03:30:06;98716.73;;;3.24;100.00
23899;BME280;20544;50.018;20.010;2022-12-29T03:33:27;98718.24;;;3.17;100.00
23899;BME280;20544;50.018;20.010;2022-12-29T03:36:47;98715.77;;;3.16;100.00
23899;BME280;20544;50.018;20.010;2022-12-29T03:40:06;98724.75;;;3.23;100.00
23899;BME280;20544;50.018;20.010;2022-12-29T03:43:26;98727.38;;;3.23;100.00
23899;BME280;20544;50.018;20.010;2022-12-29T03:46:43;98724.71;;;3.03;100.00
23899;BME280;20544;50.018;20.010;2022-12-29T03:50:02;98722.42;;;2.69;100.00
23899;BME280;20544;50.018;20.010;2022-12-29T03:53:22;98723.34;;;2.58;100.00
23899;BME280;20544;50.018;20.010;2022-12-29T03:56:38;98707.34;;;2.62;100.00
23899;BME280;20544;50.018;20.010;2022-12-29T03:59:56;98715.38;;;2.70;100.00
23899;BME280;20544;50.018;20.010;2022-12-29T04:03:14;98745.05;;;2.80;100.00
23899;BME280;20544;50.018;20.010;2022-12-29T04:06:32;98735.13;;;2.84;100.00
23899;BME280;20544;50.018;20.010;2022-12-29T04:09:50;98731.55;;;2.85;100.00
23899;BME280;20544;50.018;20.010;2022-12-29T04:13:07;98734.45;;;2.82;100.00
23899;BME280;20544;50.018;20.010;2022-12-29T04:16:25;98740.38;;;2.84;100.00
23899;BME280;20544;50.018;20.010;2022-12-29T04:19:44;98747.77;;;2.69;100.00
23899;BME280;20544;50.018;20.010;2022-12-29T04:23:03;98751.28;;;2.48;100.00
23899;BME280;20544;50.018;20.010;2022-12-29T04:26:20;98744.90;;;2.41;100.00
23899;BME280;20544;50.018;20.010;2022-12-29T04:29:44;98737.05;;;2.41;100.00
23899;BME280;20544;50.018;20.010;2022-12-29T04:33:10;98739.53;;;2.42;100.00
23899;BME280;20544;50.018;20.010;2022-12-29T04:36:26;98723.11;;;2.40;100.00
23899;BME280;20544;50.018;20.010;2022-12-29T04:39:42;98725.30;;;2.35;100.00
23899;BME280;20544;50.018;20.010;2022-12-29T04:42:59;98723.52;;;2.36;100.00
23899;BME280;20544;50.018;20.010;2022-12-29T04:46:16;98723.16;;;2.50;100.00
23899;BME280;20544;50.018;20.010;2022-12-29T04:49:46;98703.15;;;2.39;100.00
23899;BME280;20544;50.018;20.010;2022-12-29T04:53:04;98704.88;;;2.29;100.00
23899;BME280;20544;50.018;20.010;2022-12-29T04:56:22;98699.02;;;2.47;100.00
23899;BME280;20544;50.018;20.010;2022-12-29T04:59:38;98693.33;;;2.72;100.00
23899;BME280;20544;50.018;20.010;2022-12-29T05:02:55;98695.16;;;2.82;100.00
23899;BME280;20544;50.018;20.010;2022-12-29T05:06:12;98698.98;;;2.78;100.00
23899;BME280;20544;50.018;20.010;2022-12-29T05:09:29;98705.33;;;2.75;100.00
23899;BME280;20544;50.018;20.010;2022-12-29T05:12:45;98702.14;;;2.71;100.00
23899;BME280;20544;50.018;20.010;2022-12-29T05:16:02;98693.01;;;2.56;100.00
23899;BME280;20544;50.018;20.010;2022-12-29T05:19:22;98694.49;;;2.49;100.00
23899;BME280;20544;50.018;20.010;2022-12-29T05:22:39;98681.11;;;2.42;100.00
23899;BME280;20544;50.018;20.010;2022-12-29T05:25:56;98679.67;;;2.69;100.00
23899;BME280;20544;50.018;20.010;2022-12-29T05:29:29;98683.72;;;2.93;100.00
23899;BME280;20544;50.018;20.010;2022-12-29T05:32:46;98670.88;;;2.80;100.00
23899;BME280;20544;50.018;20.010;2022-12-29T05:36:09;98667.13;;;2.72;100.00
23899;BME280;20544;50.018;20.010;2022-12-29T05:39:27;98670.45;;;2.74;100.00
23899;BME280;20544;50.018;20.010;2022-12-29T05:42:44;98659.59;;;2.79;100.00
23899;BME280;20544;50.018;20.010;2022-12-29T05:46:11;98672.32;;;3.23;100.00
23899;BME280;20544;50.018;20.010;2022-12-29T05:49:32;98654.78;;;3.53;100.00
23899;BME280;20544;50.018;20.010;2022-12-29T05:53:26;98661.13;;;3.60;100.00
23899;BME280;20544;50.018;20.010;2022-12-29T05:56:48;98676.26;;;3.86;100.00
23899;BME280;20544;50.018;20.010;2022-12-29T06:00:06;98681.24;;;3.89;100.00
23899;BME280;20544;50.018;20.010;2022-12-29T06:03:26;98687.44;;;3.98;100.00
23899;BME280;20544;50.018;20.010;2022-12-29T06:06:43;98675.13;;;3.98;100.00
23899;BME280;20544;50.018;20.010;2022-12-29T06:10:01;98665.05;;;3.94;100.00
23899;BME280;20544;50.018;20.010;2022-12-29T06:13:22;98668.53;;;3.84;100.00
23899;BME280;20544;50.018;20.010;2022-12-29T06:16:37;98679.30;;;3.81;100.00
23899;BME280;20544;50.018;20.010;2022-12-29T06:20:12;98680.96;;;3.82;100.00
23899;BME280;20544;50.018;20.010;2022-12-29T06:23:28;98678.88;;;3.86;100.00
23899;BME280;20544;50.018;20.010;2022-12-29T06:26:47;98680.66;;;4.05;100.00
23899;BME280;20544;50.018;20.010;2022-12-29T06:30:04;98679.34;;;4.29;100.00
23899;BME280;20544;50.018;20.010;2022-12-29T06:33:24;98679.27;;;4.38;100.00
23899;BME280;20544;50.018;20.010;2022-12-29T06:36:44;98681.20;;;4.46;100.00
23899;BME280;20544;50.018;20.010;2022-12-29T06:40:04;98679.89;;;4.60;100.00
23899;BME280;20544;50.018;20.010;2022-12-29T06:43:36;98683.28;;;4.70;100.00
23899;BME280;20544;50.018;20.010;2022-12-29T06:46:57;98678.23;;;4.59;100.00
23899;BME280;20544;50.018;20.010;2022-12-29T06:50:14;98684.83;;;4.35;100.00
23899;BME280;20544;50.018;20.010;2022-12-29T06:53:31;98676.22;;;4.05;100.00
23899;BME280;20544;50.018;20.010;2022-12-29T06:56:51;98668.84;;;3.71;100.00
23899;BME280;20544;50.018;20.010;2022-12-29T07:00:12;98654.30;;;3.87;100.00
23899;BME280;20544;50.018;20.010;2022-12-29T07:03:30;98657.16;;;4.03;100.00
23899;BME280;20544;50.018;20.010;2022-12-29T07:06:49;98662.89;;;4.27;100.00
23899;BME280;20544;50.018;20.010;2022-12-29T07:10:07;98654.47;;;4.51;100.00
23899;BME280;20544;50.018;20.010;2022-12-29T07:13:24;98649.44;;;4.67;100.00
23899;BME280;20544;50.018;20.010;2022-12-29T07:16:44;98646.75;;;4.77;100.00
23899;BME280;20544;50.018;20.010;2022-12-29T07:20:01;98650.67;;;4.91;100.00
23899;BME280;20544;50.018;20.010;2022-12-29T07:23:20;98659.75;;;4.97;100.00
23899;BME280;20544;50.018;20.010;2022-12-29T07:26:37;98661.13;;;5.01;100.00
23899;BME280;20544;50.018;20.010;2022-12-29T07:29:54;98662.75;;;5.02;100.00
23899;BME280;20544;50.018;20.010;2022-12-29T07:33:11;98672.19;;;4.77;100.00
23899;BME280;20544;50.018;20.010;2022-12-29T07:36:29;98677.19;;;4.42;100.00
23899;BME280;20544;50.018;20.010;2022-12-29T07:39:45;98665.11;;;3.74;100.00
23899;BME280;20544;50.018;20.010;2022-12-29T07:43:02;98664.00;;;3.77;100.00
23899;BME280;20544;50.018;20.010;2022-12-29T07:46:24;98658.22;;;3.53;100.00
23899;BME280;20544;50.018;20.010;2022-12-29T07:49:52;98656.05;;;3.39;100.00
23899;BME280;20544;50.018;20.010;2022-12-29T07:53:14;98666.23;;;3.52;100.00
23899;BME280;20544;50.018;20.010;2022-12-29T07:56:32;98664.28;;;3.64;100.00
23899;BME280;20544;50.018;20.010;2022-12-29T07:59:48;98656.05;;;3.39;100.00
23899;BME280;20544;50.018;20.010;2022-12-29T08:03:05;98652.57;;;3.19;100.00
23899;BME280;20544;50.018;20.010;2022-12-29T08:06:21;98649.84;;;3.30;100.00
23899;BME280;20544;50.018;20.010;2022-12-29T08:09:40;98645.00;;;3.45;100.00
23899;BME280;20544;50.018;20.010;2022-12-29T08:12:56;98639.29;;;3.69;100.00
23899;BME280;20544;50.018;20.010;2022-12-29T08:16:15;98663.84;;;3.88;100.00
23899;BME280;20544;50.018;20.010;2022-12-29T08:19:32;98658.02;;;3.94;100.00
23899;BME280;20544;50.018;20.010;2022-12-29T08:22:49;98657.74;;;3.87;100.00
23899;BME280;20544;50.018;20.010;2022-12-29T08:26:07;98649.38;;;3.74;100.00
23899;BME280;20544;50.018;20.010;2022-12-29T08:29:24;98656.28;;;3.75;100.00
23899;BME280;20544;50.018;20.010;2022-12-29T08:32:41;98661.41;;;3.47;100.00
23899;BME280;20544;50.018;20.010;2022-12-29T08:36:02;98656.30;;;3.46;100.00
23899;BME280;20544;50.018;20.010;2022-12-29T08:39:21;98652.87;;;3.35;100.00
23899;BME280;20544;50.018;20.010;2022-12-29T08:42:41;98654.38;;;3.38;100.00
23899;BME280;20544;50.018;20.010;2022-12-29T08:45:58;98650.66;;;3.50;100.00
23899;BME280;20544;50.018;20.010;2022-12-29T08:49:16;98657.81;;;3.58;100.00
23899;BME280;20544;50.018;20.010;2022-12-29T08:52:33;98647.94;;;3.89;100.00
23899;BME280;20544;50.018;20.010;2022-12-29T08:55:56;98643.27;;;4.21;100.00
23899;BME280;20544;50.018;20.010;2022-12-29T08:59:15;98639.72;;;4.50;100.00
23899;BME280;20544;50.018;20.010;2022-12-29T09:02:32;98652.23;;;4.84;100.00
23899;BME280;20544;50.018;20.010;2022-12-29T09:05:54;98646.32;;;5.00;100.00
23899;BME280;20544;50.018;20.010;2022-12-29T09:09:10;98650.67;;;5.09;100.00
23899;BME280;20544;50.018;20.010;2022-12-29T09:12:27;98645.66;;;5.16;100.00
23899;BME280;20544;50.018;20.010;2022-12-29T09:15:44;98642.84;;;5.35;100.00
23899;BME280;20544;50.018;20.010;2022-12-29T09:19:01;98635.38;;;5.67;100.00
23899;BME280;20544;50.018;20.010;2022-12-29T09:22:18;98641.03;;;5.98;100.00
23899;BME280;20544;50.018;20.010;2022-12-29T09:25:34;98651.09;;;6.38;100.00
23899;BME280;20544;50.018;20.010;2022-12-29T09:28:52;98641.34;;;6.73;100.00
23899;BME280;20544;50.018;20.010;2022-12-29T09:32:08;98649.01;;;7.01;100.00
23899;BME280;20544;50.018;20.010;2022-12-29T09:35:27;98643.44;;;7.20;100.00
23899;BME280;20544;50.018;20.010;2022-12-29T09:38:44;98635.68;;;7.43;100.00
23899;BME280;20544;50.018;20.010;2022-12-29T09:42:04;98624.62;;;7.73;100.00
23899;BME280;20544;50.018;20.010;2022-12-29T09:45:25;98619.48;;;7.88;100.00
23899;BME280;20544;50.018;20.010;2022-12-29T09:48:47;98622.73;;;8.06;100.00
23899;BME280;20544;50.018;20.010;2022-12-29T09:52:10;98634.05;;;8.32;100.00
23899;BME280;20544;50.018;20.010;2022-12-29T09:55:38;98639.28;;;8.48;100.00
23899;BME280;20544;50.018;20.010;2022-12-29T09:59:02;98642.88;;;8.64;100.00
23899;BME280;20544;50.018;20.010;2022-12-29T10:02:34;98647.80;;;8.67;100.00
23899;BME280;20544;50.018;20.010;2022-12-29T10:05:58;98641.22;;;8.63;100.00
23899;BME280;20544;50.018;20.010;2022-12-29T10:09:19;98635.06;;;8.70;100.00
23899;BME280;20544;50.018;20.010;2022-12-29T10:12:50;98632.20;;;8.80;100.00
23899;BME280;20544;50.018;20.010;2022-12-29T10:16:11;98628.80;;;8.95;100.00
23899;BME280;20544;50.018;20.010;2022-12-29T10:19:45;98628.05;;;9.09;100.00
23899;BME280;20544;50.018;20.010;2022-12-29T10:23:24;98622.01;;;9.23;100.00
23899;BME280;20544;50.018;20.010;2022-12-29T10:26:43;98625.70;;;9.37;100.00
23899;BME280;20544;50.018;20.010;2022-12-29T10:30:03;98636.05;;;9.47;100.00
23899;BME280;20544;50.018;20.010;2022-12-29T10:33:30;98634.69;;;9.51;100.00
23899;BME280;20544;50.018;20.010;2022-12-29T10:36:52;98630.52;;;9.57;100.00
23899;BME280;20544;50.018;20.010;2022-12-29T10:40:19;98615.72;;;9.63;100.00
23899;BME280;20544;50.018;20.010;2022-12-29T10:43:44;98613.19;;;9.69;100.00
23899;BME280;20544;50.018;20.010;2022-12-29T10:47:05;98617.86;;;9.82;100.00
23899;BME280;20544;50.018;20.010;2022-12-29T10:50:26;98616.29;;;9.88;100.00
23899;BME280;20544;50.018;20.010;2022-12-29T10:53:53;98618.06;;;9.96;100.00
23899;BME280;20544;50.018;20.010;2022-12-29T10:57:16;98610.19;;;10.02;100.00
23899;BME280;20544;50.018;20.010;2022-12-29T11:00:37;98600.52;;;10.10;100.00
23899;BME280;20544;50.018;20.010;2022-12-29T11:04:00;98595.10;;;10.18;100.00
23899;BME280;20544;50.018;20.010;2022-12-29T11:07:20;98595.20;;;10.25;100.00
23899;BME280;20544;50.018;20.010;2022-12-29T11:11:01;98592.63;;;10.31;100.00
23899;BME280;20544;50.018;20.010;2022-12-29T11:14:26;98594.38;;;10.39;100.00
23899;BME280;20544;50.018;20.010;2022-12-29T11:17:50;98592.28;;;10.49;100.00
23899;BME280;20544;50.018;20.010;2022-12-29T11:21:23;98592.09;;;10.51;100.00
23899;BME280;20544;50.018;20.010;2022-12-29T11:24:45;98591.55;;;10.56;100.00
23899;BME280;20544;50.018;20.010;2022-12-29T11:28:12;98591.25;;;10.65;100.00
23899;BME280;20544;50.018;20.010;2022-12-29T11:31:28;98590.75;;;10.77;100.00
23899;BME280;20544;50.018;20.010;2022-12-29T11:34:49;98587.80;;;10.87;100.00
23899;BME280;20544;50.018;20.010;2022-12-29T11:38:20;98581.35;;;10.96;100.00
23899;BME280;20544;50.018;20.010;2022-12-29T11:41:39;98593.97;;;10.94;100.00
23899;BME280;20544;50.018;20.010;2022-12-29T11:44:56;98585.84;;;10.95;100.00
23899;BME280;20544;50.018;20.010;2022-12-29T11:48:20;98581.59;;;11.01;100.00
23899;BME280;20544;50.018;20.010;2022-12-29T11:51:41;98581.48;;;11.09;100.00
23899;BME280;20544;50.018;20.010;2022-12-29T11:55:02;98574.45;;;11.23;100.00
23899;BME280;20544;50.018;20.010;2022-12-29T11:58:33;98574.38;;;11.38;100.00
23899;BME280;20544;50.018;20.010;2022-12-29T12:01:53;98577.31;;;11.50;100.00
23899;BME280;20544;50.018;20.010;2022-12-29T12:05:26;98570.22;;;11.57;100.00
23899;BME280;20544;50.018;20.010;2022-12-29T12:08:57;98573.95;;;11.63;100.00
23899;BME280;20544;50.018;20.010;2022-12-29T12:12:19;98573.95;;;11.63;100.00
23899;BME280;20544;50.018;20.010;2022-12-29T12:15:41;98576.80;;;11.61;100.00
23899;BME280;20544;50.018;20.010;2022-12-29T12:19:04;98577.17;;;11.58;100.00
23899;BME280;20544;50.018;20.010;2022-12-29T12:22:31;98571.43;;;11.55;100.00
23899;BME280;20544;50.018;20.010;2022-12-29T12:25:54;98572.64;;;11.52;100.00
23899;BME280;20544;50.018;20.010;2022-12-29T12:29:16;98560.77;;;11.48;100.00
23899;BME280;20544;50.018;20.010;2022-12-29T12:32:41;98567.29;;;11.45;100.00
23899;BME280;20544;50.018;20.010;2022-12-29T12:36:13;98561.14;;;11.45;100.00
23899;BME280;20544;50.018;20.010;2022-12-29T12:39:44;98560.90;;;11.40;100.00
23899;BME280;20544;50.018;20.010;2022-12-29T12:43:25;98558.81;;;11.35;100.00
23899;BME280;20544;50.018;20.010;2022-12-29T12:50:54;98557.13;;;11.27;100.00
23899;BME280;20544;50.018;20.010;2022-12-29T12:54:23;98550.36;;;11.25;100.00
23899;BME280;20544;50.018;20.010;2022-12-29T12:57:51;98554.63;;;11.19;100.00
23899;BME280;20544;50.018;20.010;2022-12-29T13:01:22;98552.14;;;11.17;100.00
23899;BME280;20544;50.018;20.010;2022-12-29T13:05:01;98552.53;;;11.14;100.00
23899;BME280;20544;50.018;20.010;2022-12-29T13:08:52;98553.54;;;11.13;100.00
23899;BME280;20544;50.018;20.010;2022-12-29T13:12:19;98560.69;;;11.13;100.00
23899;BME280;20544;50.018;20.010;2022-12-29T13:15:46;98551.89;;;11.12;100.00
23899;BME280;20544;50.018;20.010;2022-12-29T13:19:08;98559.25;;;11.10;100.00
23899;BME280;20544;50.018;20.010;2022-12-29T13:22:30;98560.42;;;11.08;100.00
23899;BME280;20544;50.018;20.010;2022-12-29T13:25:56;98561.45;;;11.07;100.00
23899;BME280;20544;50.018;20.010;2022-12-29T13:29:20;98555.30;;;11.06;100.00
23899;BME280;20544;50.018;20.010;2022-12-29T13:32:49;98567.97;;;11.04;100.00
23899;BME280;20544;50.018;20.010;2022-12-29T13:36:13;98566.31;;;11.03;100.00
23899;BME280;20544;50.018;20.010;2022-12-29T13:39:35;98570.79;;;11.03;100.00
23899;BME280;20544;50.018;20.010;2022-12-29T13:42:55;98561.63;;;11.05;100.00
23899;BME280;20544;50.018;20.010;2022-12-29T13:46:12;98565.67;;;11.01;100.00
23899;BME280;20544;50.018;20.010;2022-12-29T13:49:31;98569.34;;;11.00;100.00
23899;BME280;20544;50.018;20.010;2022-12-29T13:52:51;98574.03;;;10.98;100.00
23899;BME280;20544;50.018;20.010;2022-12-29T13:56:15;98572.75;;;10.94;100.00
23899;BME280;20544;50.018;20.010;2022-12-29T13:59:40;98562.52;;;10.91;100.00
23899;BME280;20544;50.018;20.010;2022-12-29T14:03:12;98575.15;;;10.89;100.00
23899;BME280;20544;50.018;20.010;2022-12-29T14:06:37;98569.59;;;10.83;100.00
23899;BME280;20544;50.018;20.010;2022-12-29T14:09:55;98576.09;;;10.81;100.00
23899;BME280;20544;50.018;20.010;2022-12-29T14:13:15;98572.19;;;10.77;100.00
23899;BME280;20544;50.018;20.010;2022-12-29T14:16:34;98573.55;;;10.73;100.00
23899;BME280;20544;50.018;20.010;2022-12-29T14:19:55;98570.03;;;10.65;100.00
23899;BME280;20544;50.018;20.010;2022-12-29T14:23:28;98571.39;;;10.61;100.00
23899;BME280;20544;50.018;20.010;2022-12-29T14:26:55;98574.63;;;10.57;100.00
23899;BME280;20544;50.018;20.010;2022-12-29T14:34:34;98573.82;;;10.41;100.00
23899;BME280;20544;50.018;20.010;2022-12-29T14:38:07;98567.96;;;10.31;100.00
23899;BME280;20544;50.018;20.010;2022-12-29T14:41:34;98576.00;;;10.23;100.00
23899;BME280;20544;50.018;20.010;2022-12-29T14:44:55;98566.59;;;10.20;100.00
23899;BME280;20544;50.018;20.010;2022-12-29T14:48:41;98576.28;;;10.13;100.00
23899;BME280;20544;50.018;20.010;2022-12-29T14:52:07;98569.34;;;9.97;100.00
23899;BME280;20544;50.018;20.010;2022-12-29T14:55:39;98584.80;;;9.93;100.00
23899;BME280;20544;50.018;20.010;2022-12-29T14:59:00;98591.30;;;9.91;100.00
23899;BME280;20544;50.018;20.010;2022-12-29T15:02:20;98588.06;;;9.80;100.00
23899;BME280;20544;50.018;20.010;2022-12-29T15:05:42;98601.22;;;9.74;100.00
23899;BME280;20544;50.018;20.010;2022-12-29T15:09:06;98598.77;;;9.72;100.00
23899;BME280;20544;50.018;20.010;2022-12-29T15:12:33;98596.19;;;9.64;100.00
23899;BME280;20544;50.018;20.010;2022-12-29T15:15:52;98596.72;;;9.59;100.00
23899;BME280;20544;50.018;20.010;2022-12-29T15:19:23;98594.78;;;9.53;100.00
23899;BME280;20544;50.018;20.010;2022-12-29T15:22:43;98586.75;;;9.46;100.00
23899;BME280;20544;50.018;20.010;2022-12-29T15:26:01;98589.64;;;9.36;100.00
23899;BME280;20544;50.018;20.010;2022-12-29T15:29:40;98585.53;;;9.34;100.00
23899;BME280;20544;50.018;20.010;2022-12-29T15:32:58;98582.59;;;9.29;100.00
23899;BME280;20544;50.018;20.010;2022-12-29T15:36:20;98583.13;;;9.24;100.00
23899;BME280;20544;50.018;20.010;2022-12-29T15:39:37;98594.23;;;9.19;100.00
23899;BME280;20544;50.018;20.010;2022-12-29T15:43:31;98579.53;;;9.17;100.00
23899;BME280;20544;50.018;20.010;2022-12-29T15:46:55;98584.63;;;9.03;100.00
23899;BME280;20544;50.018;20.010;2022-12-29T15:50:22;98585.95;;;8.99;100.00
23899;BME280;20544;50.018;20.010;2022-12-29T15:53:40;98580.73;;;8.91;100.00
23899;BME280;20544;50.018;20.010;2022-12-29T15:56:58;98578.61;;;8.86;100.00
23899;BME280;20544;50.018;20.010;2022-12-29T16:00:26;98570.38;;;8.81;100.00
23899;BME280;20544;50.018;20.010;2022-12-29T16:03:47;98579.83;;;8.76;100.00
23899;BME280;20544;50.018;20.010;2022-12-29T16:07:06;98587.65;;;8.69;100.00
23899;BME280;20544;50.018;20.010;2022-12-29T16:10:41;98593.12;;;8.67;100.00
23899;BME280;20544;50.018;20.010;2022-12-29T16:13:59;98581.22;;;8.63;100.00
23899;BME280;20544;50.018;20.010;2022-12-29T16:17:22;98578.94;;;8.60;100.00
23899;BME280;20544;50.018;20.010;2022-12-29T16:20:44;98582.21;;;8.62;100.00
23899;BME280;20544;50.018;20.010;2022-12-29T16:24:03;98586.39;;;8.56;100.00
23899;BME280;20544;50.018;20.010;2022-12-29T16:27:25;98584.44;;;8.50;100.00
23899;BME280;20544;50.018;20.010;2022-12-29T16:30:46;98577.86;;;8.46;100.00
23899;BME280;20544;50.018;20.010;2022-12-29T16:34:19;98577.17;;;8.44;100.00
23899;BME280;20544;50.018;20.010;2022-12-29T16:37:37;98570.74;;;8.38;100.00
23899;BME280;20544;50.018;20.010;2022-12-29T16:40:55;98577.20;;;8.36;100.00
23899;BME280;20544;50.018;20.010;2022-12-29T16:44:18;98575.88;;;8.40;100.00
23899;BME280;20544;50.018;20.010;2022-12-29T16:47:36;98570.14;;;8.28;100.00
23899;BME280;20544;50.018;20.010;2022-12-29T16:50:53;98571.51;;;8.16;100.00
23899;BME280;20544;50.018;20.010;2022-12-29T16:54:21;98579.14;;;8.02;100.00
23899;BME280;20544;50.018;20.010;2022-12-29T16:57:40;98570.28;;;7.95;100.00
23899;BME280;20544;50.018;20.010;2022-12-29T17:00:59;98580.36;;;7.83;100.00
23899;BME280;20544;50.018;20.010;2022-12-29T17:04:18;98576.25;;;7.81;100.00
23899;BME280;20544;50.018;20.010;2022-12-29T17:07:35;98572.80;;;7.72;100.00
23899;BME280;20544;50.018;20.010;2022-12-29T17:10:51;98571.47;;;7.76;100.00
23899;BME280;20544;50.018;20.010;2022-12-29T17:17:58;98571.88;;;7.32;100.00
23899;BME280;20544;50.018;20.010;2022-12-29T17:21:17;98572.70;;;7.16;100.00
23899;BME280;20544;50.018;20.010;2022-12-29T17:24:34;98567.73;;;7.12;100.00
23899;BME280;20544;50.018;20.010;2022-12-29T17:27:52;98573.86;;;7.13;100.00
23899;BME280;20544;50.018;20.010;2022-12-29T17:31:12;98567.25;;;7.01;100.00
23899;BME280;20544;50.018;20.010;2022-12-29T17:34:29;98566.91;;;6.87;100.00
23899;BME280;20544;50.018;20.010;2022-12-29T17:37:45;98573.49;;;6.91;100.00
23899;BME280;20544;50.018;20.010;2022-12-29T17:41:02;98583.18;;;6.66;100.00
23899;BME280;20544;50.018;20.010;2022-12-29T17:44:20;98585.11;;;6.47;100.00
23899;BME280;20544;50.018;20.010;2022-12-29T17:47:38;98582.30;;;6.41;100.00
23899;BME280;20544;50.018;20.010;2022-12-29T17:50:55;98587.00;;;6.21;100.00
23899;BME280;20544;50.018;20.010;2022-12-29T17:54:22;98591.64;;;6.27;100.00
23899;BME280;20544;50.018;20.010;2022-12-29T17:57:39;98575.11;;;6.17;100.00